createdAt,value
2024-01-10T00:01:38.151Z,65.71
2024-01-10T00:06:35.043Z,65.86
2024-01-10T00:11:33.726Z,65.86
2024-01-10T00:16:31.961Z,65.88
2024-01-10T00:21:29.129Z,66.46
2024-01-10T00:26:25.959Z,66.50
2024-01-10T00:31:22.867Z,66.33
2024-01-10T00:36:19.693Z,66.38
2024-01-10T00:41:16.551Z,66.26
2024-01-10T00:46:13.546Z,66.22
2024-01-10T00:51:13.412Z,66.65
2024-01-10T00:56:10.961Z,66.77
2024-01-10T01:01:07.822Z,66.79
2024-01-10T01:06:04.964Z,66.79
2024-01-10T01:11:01.806Z,67.17
2024-01-10T01:15:59.159Z,67.17
2024-01-10T01:20:56.401Z,67.45
2024-01-10T01:25:53.241Z,67.59
2024-01-10T01:30:50.070Z,67.63
2024-01-10T01:35:46.892Z,67.66
2024-01-10T01:40:43.745Z,67.63
2024-01-10T01:45:40.531Z,67.63
2024-01-10T01:50:37.377Z,67.49
2024-01-10T01:55:34.273Z,67.77
2024-01-10T02:00:31.685Z,67.88
2024-01-10T02:05:29.633Z,68.02
2024-01-10T02:10:26.653Z,68.22
2024-01-10T02:15:23.509Z,68.47
2024-01-10T02:20:22.207Z,68.38
2024-01-10T02:25:19.825Z,68.31
2024-01-10T02:30:17.153Z,68.74
2024-01-10T02:35:14.053Z,68.42
2024-01-10T02:40:11.288Z,68.54
2024-01-10T02:45:08.273Z,68.52
2024-01-10T02:50:06.536Z,68.92
2024-01-10T02:55:03.408Z,68.86
2024-01-10T03:00:00.274Z,68.86
2024-01-10T03:04:57.166Z,69.10
2024-01-10T03:09:53.973Z,69.16
2024-01-10T03:14:50.846Z,69.21
2024-01-10T03:19:47.673Z,69.42
2024-01-10T03:24:46.929Z,69.55
2024-01-10T03:29:43.709Z,69.65
2024-01-10T03:34:42.832Z,69.87
2024-01-10T03:39:39.641Z,69.96
2024-01-10T03:44:36.503Z,69.97
2024-01-10T03:49:33.329Z,69.92
2024-01-10T03:54:30.084Z,70.58
2024-01-10T03:59:26.921Z,70.62
2024-01-10T04:04:23.805Z,70.49
2024-01-10T04:09:20.881Z,71.27
2024-01-10T04:14:18.886Z,71.07
2024-01-10T04:19:23.004Z,72.25
2024-01-10T04:24:19.985Z,71.32
2024-01-10T04:29:16.895Z,71.21
2024-01-10T04:34:13.731Z,71.92
2024-01-10T04:39:10.553Z,71.60
2024-01-10T04:44:07.465Z,71.14
2024-01-10T04:49:04.343Z,72.13
2024-01-10T04:54:01.153Z,71.54
2024-01-10T04:58:58.019Z,71.54
2024-01-10T05:03:54.836Z,71.51
2024-01-10T05:08:51.972Z,71.83
2024-01-10T05:13:48.728Z,71.29
2024-01-10T05:18:45.777Z,71.10
2024-01-10T05:23:42.592Z,71.88
2024-01-10T05:28:39.447Z,70.91
2024-01-10T05:33:36.289Z,70.94
2024-01-10T05:38:33.178Z,70.78
2024-01-10T05:43:30.001Z,70.73
2024-01-10T05:48:27.737Z,72.09
2024-01-10T05:53:26.049Z,70.73
2024-01-10T05:58:22.838Z,70.34
2024-01-10T06:03:19.780Z,70.26
2024-01-10T06:08:16.939Z,70.30
2024-01-10T06:13:14.031Z,70.18
2024-01-10T06:18:10.954Z,70.17
2024-01-10T06:23:07.831Z,70.01
2024-01-10T06:28:04.720Z,69.86
2024-01-10T06:33:01.779Z,70.05
2024-01-10T06:37:58.757Z,69.72
2024-01-10T06:42:55.925Z,69.55
2024-01-10T06:47:52.734Z,69.52
2024-01-10T06:52:49.574Z,69.52
2024-01-10T06:57:46.787Z,69.36
2024-01-10T07:02:43.627Z,69.31
2024-01-10T07:07:40.420Z,69.15
2024-01-10T07:12:37.266Z,69.16
2024-01-10T07:17:34.874Z,69.33
2024-01-10T07:22:34.107Z,69.10
2024-01-10T07:27:30.914Z,69.10
2024-01-10T07:32:27.897Z,68.90
2024-01-10T07:37:24.829Z,68.77
2024-01-10T07:42:21.619Z,68.81
2024-01-10T07:47:18.660Z,68.76
2024-01-10T07:52:17.547Z,69.02
2024-01-10T07:57:14.354Z,68.70
2024-01-10T08:02:11.715Z,68.78
2024-01-10T08:07:09.216Z,68.76
2024-01-10T08:12:06.381Z,68.61
2024-01-10T08:17:03.257Z,68.84
2024-01-10T08:22:00.033Z,68.63
2024-01-10T08:26:56.822Z,68.38
2024-01-10T08:31:53.621Z,68.17
2024-01-10T08:36:52.011Z,68.40
2024-01-10T08:41:49.203Z,68.12
2024-01-10T08:46:46.143Z,68.10
2024-01-10T08:51:45.049Z,68.23
2024-01-10T08:56:41.788Z,68.16
2024-01-10T09:01:40.243Z,67.99
2024-01-10T09:06:37.385Z,67.41
2024-01-10T09:11:38.138Z,67.27
2024-01-10T09:16:36.904Z,66.93
2024-01-10T09:21:33.673Z,67.47
2024-01-10T09:26:30.702Z,67.53
2024-01-10T09:31:27.489Z,67.60
2024-01-10T09:36:24.509Z,67.32
2024-01-10T09:41:21.441Z,67.46
2024-01-10T09:46:21.029Z,66.80
2024-01-10T09:51:17.928Z,67.23
2024-01-10T09:56:14.777Z,67.42
2024-01-10T10:01:11.716Z,66.20
2024-01-10T10:06:11.871Z,66.91
2024-01-10T10:11:15.899Z,66.85
2024-01-10T10:16:14.397Z,66.34
2024-01-10T10:21:14.173Z,65.90
2024-01-10T10:26:23.429Z,65.19
2024-01-10T10:31:21.324Z,65.56
2024-01-10T10:36:18.842Z,64.74
2024-01-10T10:41:16.022Z,65.21
2024-01-10T10:46:16.330Z,64.82
2024-01-10T10:51:18.923Z,64.32
2024-01-10T10:56:15.760Z,62.98
2024-01-10T11:01:15.312Z,63.96
2024-01-10T11:06:12.661Z,63.80
2024-01-10T11:11:23.970Z,60.30
2024-01-10T11:16:47.020Z,63.31
2024-01-10T11:21:46.852Z,62.14
2024-01-10T11:26:43.737Z,61.78
2024-01-10T11:31:40.923Z,60.49
2024-01-10T11:36:37.798Z,60.05
2024-01-10T11:41:36.921Z,60.69
2024-01-10T11:46:33.834Z,60.39
2024-01-10T11:51:31.345Z,59.81
2024-01-10T11:56:43.277Z,58.52
2024-01-10T12:01:42.785Z,59.84
2024-01-10T12:06:40.045Z,58.32
2024-01-10T12:11:37.201Z,58.17
2024-01-10T12:16:34.306Z,58.59
2024-01-10T12:21:31.727Z,57.67
2024-01-10T12:26:31.134Z,57.74
2024-01-10T12:31:31.870Z,56.21
2024-01-10T12:36:28.666Z,57.02
2024-01-10T12:41:25.502Z,55.63
2024-01-10T12:46:25.211Z,55.52
2024-01-10T12:51:22.030Z,55.36
2024-01-10T12:56:19.418Z,52.81
2024-01-10T13:01:16.807Z,55.28
2024-01-10T13:06:13.701Z,53.70
2024-01-10T13:11:11.232Z,54.24
2024-01-10T13:16:08.583Z,51.03
2024-01-10T13:21:09.093Z,53.49
2024-01-10T13:26:06.131Z,53.75
2024-01-10T13:31:04.521Z,53.37
2024-01-10T13:36:02.830Z,52.32
2024-01-10T13:40:59.844Z,52.84
2024-01-10T13:45:56.629Z,52.08
2024-01-10T13:50:53.570Z,52.63
2024-01-10T13:55:51.651Z,52.85
2024-01-10T14:00:48.514Z,52.54
2024-01-10T14:05:46.297Z,52.25
2024-01-10T14:10:43.646Z,52.22
2024-01-10T14:15:40.559Z,51.63
2024-01-10T14:20:39.586Z,50.41
2024-01-10T14:25:37.212Z,51.46
2024-01-10T14:30:34.330Z,50.48
2024-01-10T14:35:31.721Z,51.18
2024-01-10T14:40:29.068Z,51.74
2024-01-10T14:45:26.276Z,51.70
2024-01-10T14:50:26.005Z,51.56
2024-01-10T14:55:22.854Z,50.69
2024-01-10T15:00:19.907Z,51.42
2024-01-10T15:05:17.390Z,50.97
2024-01-10T15:10:14.337Z,51.15
2024-01-10T15:15:11.961Z,50.16
2024-01-10T15:20:09.344Z,51.15
2024-01-10T15:25:07.579Z,51.08
2024-01-10T15:30:15.985Z,50.86
2024-01-10T15:35:14.951Z,51.05
2024-01-10T15:40:13.247Z,51.00
2024-01-10T15:45:12.774Z,49.83
2024-01-10T15:50:11.095Z,51.20
2024-01-10T15:55:10.059Z,50.86
2024-01-10T16:00:07.782Z,50.67
2024-01-10T16:05:05.137Z,51.09
2024-01-10T16:10:02.166Z,50.78
2024-01-10T16:14:58.917Z,50.81
2024-01-10T16:19:55.823Z,50.63
2024-01-10T16:24:54.356Z,51.70
2024-01-10T16:29:51.159Z,51.43
2024-01-10T16:34:48.971Z,51.91
2024-01-10T16:39:46.898Z,52.25
2024-01-10T16:44:43.920Z,52.15
2024-01-10T16:49:40.780Z,52.28
2024-01-10T16:54:38.039Z,52.65
2024-01-10T16:59:34.893Z,52.42
2024-01-10T17:04:31.946Z,52.91
2024-01-10T17:09:29.967Z,53.08
2024-01-10T17:14:27.013Z,53.04
2024-01-10T17:19:24.999Z,53.15
2024-01-10T17:24:22.231Z,52.08
2024-01-10T17:29:19.451Z,52.87
2024-01-10T17:34:16.570Z,53.15
2024-01-10T17:39:13.313Z,53.58
2024-01-10T17:44:10.257Z,53.58
2024-01-10T17:49:07.339Z,53.63
2024-01-10T17:54:04.226Z,53.13
2024-01-10T17:59:02.087Z,53.84
2024-01-10T18:04:06.975Z,54.00
2024-01-10T18:09:10.410Z,54.05
2024-01-10T18:14:07.254Z,54.52
2024-01-10T18:19:04.228Z,54.62
2024-01-10T18:24:01.419Z,54.98
2024-01-10T18:28:58.278Z,55.18
2024-01-10T18:33:55.243Z,55.11
2024-01-10T18:38:53.101Z,55.34
2024-01-10T18:43:50.068Z,55.63
2024-01-10T18:48:46.956Z,55.63
2024-01-10T18:53:43.772Z,55.80
2024-01-10T18:58:40.524Z,56.06
2024-01-10T19:03:37.659Z,56.23
2024-01-10T19:08:37.820Z,56.35
2024-01-10T19:13:40.042Z,56.31
2024-01-10T19:18:37.404Z,56.50
2024-01-10T19:23:35.342Z,56.72
2024-01-10T19:28:32.244Z,56.77
2024-01-10T19:33:29.172Z,56.74
2024-01-10T19:38:26.269Z,57.24
2024-01-10T19:43:24.969Z,57.10
2024-01-10T19:48:21.915Z,57.24
2024-01-10T19:53:19.068Z,57.58
2024-01-10T19:58:15.854Z,57.56
2024-01-10T20:03:12.787Z,57.68
2024-01-10T20:08:09.742Z,57.80
2024-01-10T20:13:08.328Z,57.86
2024-01-10T20:18:05.992Z,58.15
2024-01-10T20:23:04.045Z,58.50
2024-01-10T20:28:01.421Z,58.69
2024-01-10T20:33:01.769Z,58.63
2024-01-10T20:37:58.730Z,58.87
2024-01-10T20:42:55.573Z,58.74
2024-01-10T20:47:52.549Z,58.70
2024-01-10T20:52:49.479Z,59.21
2024-01-10T20:57:46.794Z,59.07
2024-01-10T21:02:43.751Z,59.27
2024-01-10T21:07:40.570Z,59.20
2024-01-10T21:12:37.865Z,59.19
2024-01-10T21:17:34.784Z,59.31
2024-01-10T21:22:31.819Z,59.45
2024-01-10T21:27:29.064Z,59.29
2024-01-10T21:32:26.136Z,59.23
2024-01-10T21:37:22.999Z,59.62
2024-01-10T21:42:19.929Z,59.65
2024-01-10T21:47:16.945Z,59.72
2024-01-10T21:52:13.853Z,59.76
2024-01-10T21:57:10.626Z,60.09
2024-01-10T22:02:07.598Z,60.19
2024-01-10T22:07:04.547Z,60.43
2024-01-10T22:12:01.376Z,60.04
2024-01-10T22:16:58.185Z,60.27
2024-01-10T22:21:54.975Z,60.23
2024-01-10T22:26:53.137Z,60.49
2024-01-10T22:31:50.081Z,60.24
2024-01-10T22:36:46.957Z,60.34
2024-01-10T22:41:43.688Z,60.38
2024-01-10T22:46:40.542Z,60.31
2024-01-10T22:51:37.302Z,60.64
2024-01-10T22:56:34.127Z,61.33
2024-01-10T23:01:32.116Z,61.09
2024-01-10T23:06:29.221Z,61.04
2024-01-10T23:11:26.522Z,61.19
2024-01-10T23:16:24.197Z,61.32
2024-01-10T23:21:21.115Z,61.47
2024-01-10T23:26:19.662Z,61.67
2024-01-10T23:31:18.769Z,62.04
2024-01-10T23:36:15.688Z,62.30
2024-01-10T23:41:12.530Z,62.14
2024-01-10T23:46:09.860Z,62.28
2024-01-10T23:51:07.038Z,62.27
2024-01-10T23:56:06.991Z,62.57
